Aviation Digital Data Service (ADDS)

Output produced by METARs form (1145 UTC 17 June 2019)
found at http://www.aviationweather.gov/metar/data/
 
Forecast for: PAED (ELMENDORF AFB , AK, US)
Text: TAF PAED 171100Z 1711/1817 VRB06KT 9999 SCT040 BKN050 620602 QNH2965INS
Forecast period: 1100 UTC 17 June 2019 to 1300 UTC 18 June 2019
Forecast type: FROM: standard forecast or significant change
Winds: variable direction winds at 7 MPH (6 knots; 3.1 m/s)
Visibility: 6 or more miles 10+ km)
Ceiling: 5000 feet AGL
Clouds: scattered clouds at 4000 feet AGL
broken clouds at 5000 feet AGL
Weather: no significant weather forecast for this period
Text: TEMPO 1800/1805 19012KT 8000 -SHRA BKN030
Forecast period: 0000 to 0500 UTC 18 June 2019
Forecast type: TEMPORARY: The following changes expected for less than half the time period
Winds: from the S (190 degrees) at 14 MPH (12 knots; 6.2 m/s)
Visibility: 5 miles (8 km)
Ceiling: 3000 feet AGL
Clouds: broken clouds at 3000 feet AGL
Weather: -SHRA  (light rain showers)
Text: BECMG 1813/1814 20009KT 9999 FEW025 BKN070 620702 QNH2982INS TX20/1723Z TN11/1714Z
Forecast period: 1300 to 1700 UTC 18 June 2019
Forecast type: BECOMING: Conditions expected to become as follows by 1400 UTC 18 June 2019
Winds: from the SSW (200 degrees) at 10 MPH (9 knots; 4.6 m/s)
Visibility: 6 or more miles 10+ km)
Ceiling: 7000 feet AGL
Clouds: few clouds at 2500 feet AGL
broken clouds at 7000 feet AGL
Weather: no significant weather forecast for this period